TimeEST,TemperatureF,Dew PointF,Humidity,Sea Level PressureIn,VisibilityMPH,Wind Direction,Wind SpeedMPH,Gust SpeedMPH,PrecipitationIn,Events,Conditions,WindDirDegrees,DateUTC
12:24 AM,41.0,39.2,93,29.46,10.0,SSW,12.7,-,N/A,,Overcast,210,2013-02-27 05:24:00
12:43 AM,41.0,39.2,93,29.46,9.0,SSW,11.5,-,N/A,,Overcast,210,2013-02-27 05:43:00
12:53 AM,41.0,39.0,93,29.49,9.0,SSW,11.5,-,N/A,,Overcast,210,2013-02-27 05:53:00
1:07 AM,41.0,39.2,93,29.47,4.0,SW,9.2,-,0.00,Rain,Light Rain,220,2013-02-27 06:07:00
1:27 AM,41.0,39.2,93,29.47,6.0,SSW,9.2,-,0.01,,Overcast,210,2013-02-27 06:27:00
1:53 AM,41.0,39.9,96,29.49,8.0,SW,9.2,-,0.01,,Overcast,220,2013-02-27 06:53:00
2:46 AM,39.2,39.2,100,29.49,10.0,SW,11.5,-,N/A,,Overcast,220,2013-02-27 07:46:00
2:53 AM,39.9,39.0,97,29.51,10.0,SW,10.4,-,N/A,,Overcast,220,2013-02-27 07:53:00
3:00 AM,39.2,37.4,93,29.49,9.0,SW,20.7,25.3,N/A,,Overcast,230,2013-02-27 08:00:00
3:53 AM,39.0,37.0,93,29.52,10.0,SW,11.5,19.6,0.01,Rain,Light Rain,230,2013-02-27 08:53:00
4:01 AM,39.2,37.4,93,29.50,8.0,SW,12.7,-,0.00,Rain,Light Rain,230,2013-02-27 09:01:00
4:15 AM,39.2,37.4,93,29.50,7.0,SW,13.8,20.7,0.02,Rain,Light Rain,230,2013-02-27 09:15:00
5:53 AM,39.0,36.0,89,29.54,10.0,SW,11.5,-,0.02,,Overcast,220,2013-02-27 10:53:00
6:53 AM,39.0,35.1,86,29.56,10.0,SW,12.7,-,N/A,,Overcast,220,2013-02-27 11:53:00
7:53 AM,37.9,36.0,93,29.60,10.0,SSW,10.4,-,N/A,,Overcast,210,2013-02-27 12:53:00
8:10 AM,37.4,35.6,93,29.57,10.0,SSW,11.5,-,N/A,,Overcast,210,2013-02-27 13:10:00
8:53 AM,39.0,36.0,89,29.61,10.0,SW,12.7,-,N/A,,Overcast,220,2013-02-27 13:53:00
9:34 AM,37.4,35.6,93,29.59,6.0,SW,13.8,19.6,0.00,,Overcast,220,2013-02-27 14:34:00
9:53 AM,39.0,36.0,89,29.62,10.0,SW,13.8,-,0.00,,Overcast,220,2013-02-27 14:53:00
10:00 AM,39.2,35.6,87,29.59,10.0,SSW,11.5,-,N/A,,Overcast,210,2013-02-27 15:00:00
10:53 AM,37.9,36.0,93,29.62,4.0,WSW,17.3,-,0.01,Rain,Light Rain,240,2013-02-27 15:53:00
11:11 AM,39.2,35.6,87,29.60,10.0,SW,17.3,27.6,0.00,Rain,Light Rain,230,2013-02-27 16:11:00
11:53 AM,37.0,35.1,93,29.62,5.0,SW,11.5,-,0.02,Rain,Light Rain,230,2013-02-27 16:53:00
12:53 PM,37.0,34.0,89,29.62,10.0,SW,18.4,25.3,0.02,Rain,Light Rain,230,2013-02-27 17:53:00
1:02 PM,37.4,33.8,87,29.60,10.0,WSW,18.4,33.4,0.00,,Overcast,240,2013-02-27 18:02:00
1:22 PM,35.6,33.8,93,29.60,10.0,SW,20.7,27.6,0.00,,Overcast,230,2013-02-27 18:22:00
1:53 PM,36.0,33.1,89,29.62,8.0,SW,15.0,20.7,0.01,Rain,Light Rain,230,2013-02-27 18:53:00
2:07 PM,35.6,33.8,93,29.60,6.0,SW,16.1,-,0.00,Snow,Light Snow,230,2013-02-27 19:07:00
2:53 PM,36.0,33.1,89,29.63,5.0,SW,16.1,-,0.01,Snow,Light Snow,230,2013-02-27 19:53:00
3:18 PM,35.6,33.8,93,29.61,5.0,WSW,11.5,-,0.01,,Overcast,240,2013-02-27 20:18:00
3:30 PM,35.6,32.0,87,29.61,6.0,WSW,13.8,21.9,0.01,Snow,Light Snow,240,2013-02-27 20:30:00
3:37 PM,35.6,33.8,93,29.61,6.0,WSW,13.8,19.6,0.01,Snow,Light Snow,240,2013-02-27 20:37:00
3:49 PM,35.6,32.0,87,29.61,5.0,WSW,15.0,-,0.01,Snow,Light Snow,250,2013-02-27 20:49:00
3:53 PM,35.1,32.0,89,29.64,4.0,WSW,15.0,23.0,0.01,Snow,Light Snow,240,2013-02-27 20:53:00
4:12 PM,33.8,30.2,87,29.61,2.0,WSW,13.8,-,0.01,Snow,Light Snow,240,2013-02-27 21:12:00
4:19 PM,33.8,30.2,87,29.62,1.5,SW,11.5,-,0.01,Snow,Light Snow,220,2013-02-27 21:19:00
4:26 PM,33.8,32.0,93,29.62,2.0,SW,12.7,-,0.01,Snow,Light Snow,220,2013-02-27 21:26:00
4:42 PM,33.8,32.0,93,29.62,3.0,WSW,12.7,25.3,0.01,Snow,Light Snow,240,2013-02-27 21:42:00
4:53 PM,34.0,32.0,92,29.65,3.0,WSW,12.7,19.6,0.02,Snow,Light Snow,240,2013-02-27 21:53:00
4:58 PM,33.8,32.0,93,29.63,2.5,SW,12.7,-,0.00,Snow,Light Snow,230,2013-02-27 21:58:00
5:08 PM,33.8,32.0,93,29.63,2.5,SW,8.1,-,0.00,Snow,Light Snow,230,2013-02-27 22:08:00
5:15 PM,33.8,32.0,93,29.63,6.0,SW,10.4,-,0.00,Snow,Light Snow,220,2013-02-27 22:15:00
5:53 PM,34.0,30.0,85,29.66,6.0,WSW,16.1,-,0.00,Snow,Light Snow,240,2013-02-27 22:53:00
6:53 PM,33.1,30.0,89,29.68,4.0,SW,16.1,-,0.00,Snow,Light Snow,230,2013-02-27 23:53:00
7:18 PM,33.8,30.2,87,29.65,5.0,SW,11.5,-,0.00,Snow,Light Snow,230,2013-02-28 00:18:00
7:53 PM,33.1,30.0,89,29.68,4.0,SW,15.0,-,0.00,Snow,Light Snow,230,2013-02-28 00:53:00
9:53 PM,32.0,30.0,92,29.67,2.5,SW,11.5,-,0.00,Snow,Light Snow,220,2013-02-28 02:53:00
9:56 PM,32.0,30.2,93,29.64,2.5,SW,12.7,-,0.00,Snow,Light Snow,220,2013-02-28 02:56:00
10:03 PM,32.0,30.2,93,29.64,2.0,SW,13.8,-,0.00,Snow,Light Snow,230,2013-02-28 03:03:00
10:08 PM,32.0,30.2,93,29.64,1.8,SW,13.8,-,0.00,Snow,Light Snow,230,2013-02-28 03:08:00
10:15 PM,32.0,28.4,87,29.64,2.5,WSW,15.0,-,0.00,Snow,Light Snow,240,2013-02-28 03:15:00
10:24 PM,32.0,28.4,87,29.64,4.0,WSW,11.5,-,0.00,Snow,Light Snow,240,2013-02-28 03:24:00
10:53 PM,32.0,28.9,88,29.67,4.0,West,9.2,-,0.00,Snow,Light Snow,260,2013-02-28 03:53:00
11:17 PM,32.0,28.4,87,29.63,4.0,WSW,8.1,-,0.00,Snow,Light Snow,250,2013-02-28 04:17:00
11:51 PM,32.0,28.4,87,29.62,5.0,WSW,9.2,-,0.00,Snow,Light Snow,240,2013-02-28 04:51:00
11:53 PM,32.0,28.9,88,29.65,6.0,WSW,12.7,-,0.00,Snow,Light Snow,250,2013-02-28 04:53:00